Time;durP1;ratioP1;P1;durP2;ratioP2;P2;SDS_P1;SDS_P2;PMS_P1;PMS_P2;Temp;Humidity;BMP_temperature;BMP_pressure;BME280_temperature;BME280_humidity;BME280_pressure;Samples;Min_cycle;Max_cycle;Signal;HPM_P1;HPM_P2
2023/04/03 00:01:56;;;;;;;11.77;3.10;;;;;;;18.20;57.52;101102.25;5070222;28;20191;-61
2023/04/03 00:04:22;;;;;;;8.67;4.00;;;;;;;18.21;57.50;101103.09;5081138;28;20232;-61
2023/04/03 00:06:47;;;;;;;9.60;2.90;;;;;;;18.15;57.32;101098.78;5067143;28;20195;-63
2023/04/03 00:09:12;;;;;;;10.10;3.00;;;;;;;18.06;57.84;101103.81;5017859;28;20168;-63
2023/04/03 00:11:38;;;;;;;14.40;2.80;;;;;;;17.98;57.92;101099.91;5060732;28;20262;-62
2023/04/03 00:14:04;;;;;;;10.23;3.03;;;;;;;17.94;57.98;101104.66;5062643;28;20167;-62
2023/04/03 00:16:29;;;;;;;12.83;3.40;;;;;;;17.88;57.98;101106.09;5045259;28;20635;-62
2023/04/03 00:18:55;;;;;;;14.23;2.73;;;;;;;17.86;58.11;101101.94;5061660;28;20175;-62
2023/04/03 00:21:20;;;;;;;9.40;3.30;;;;;;;17.84;58.37;101104.28;5044035;28;20510;-63
2023/04/03 00:23:45;;;;;;;10.43;3.50;;;;;;;17.81;58.54;101105.84;5063052;28;20580;-62
2023/04/03 00:26:11;;;;;;;12.60;4.67;;;;;;;17.81;58.55;101102.16;5038542;28;20190;-62
2023/04/03 00:28:36;;;;;;;10.93;3.30;;;;;;;17.78;58.55;101112.28;5052856;28;20210;-62
2023/04/03 00:31:02;;;;;;;13.70;3.07;;;;;;;17.76;58.37;101108.94;5031981;28;20183;-62
2023/04/03 00:33:27;;;;;;;15.03;3.43;;;;;;;17.77;58.53;101101.22;5049757;28;20202;-61
2023/04/03 00:35:53;;;;;;;13.27;3.33;;;;;;;17.76;58.47;101105.25;5053035;28;20184;-62
2023/04/03 00:38:18;;;;;;;12.13;3.13;;;;;;;17.79;58.27;101110.25;5050821;28;20179;-62
2023/04/03 00:40:46;;;;;;;12.53;3.00;;;;;;;17.73;58.28;101114.53;5050905;28;20246;-63
2023/04/03 00:43:22;;;;;;;14.00;2.77;;;;;;;17.73;58.50;101114.53;5040551;28;20207;-62
2023/04/03 00:45:49;;;;;;;7.90;2.83;;;;;;;17.70;58.61;101113.22;5051862;28;20409;-62
2023/04/03 00:48:31;;;;;;;7.13;2.97;;;;;;;17.73;58.57;101115.38;5050547;28;20494;-62
2023/04/03 00:50:57;;;;;;;8.03;2.77;;;;;;;17.73;58.39;101114.53;5071938;28;20409;-62
2023/04/03 00:53:25;;;;;;;19.67;3.37;;;;;;;17.76;58.23;101116.69;5051458;28;20472;-62
2023/04/03 00:55:51;;;;;;;12.43;2.67;;;;;;;17.75;58.17;101123.59;5035221;28;20179;-62
2023/04/03 00:58:18;;;;;;;11.77;3.00;;;;;;;17.69;58.20;101108.69;5000653;28;20488;-63
2023/04/03 01:00:47;;;;;;;8.03;2.83;;;;;;;17.70;58.37;101110.38;5017208;28;20188;-62
2023/04/03 01:03:12;;;;;;;7.87;2.50;;;;;;;17.68;58.30;101112.75;5035432;28;20560;-62
2023/04/03 01:05:38;;;;;;;6.07;2.50;;;;;;;17.67;58.38;101110.25;5077736;28;20903;-61
2023/04/03 01:08:03;;;;;;;7.57;3.13;;;;;;;17.67;58.24;101105.38;5056690;28;20632;-62
2023/04/03 01:10:29;;;;;;;12.83;3.70;;;;;;;17.65;58.53;101107.75;5054111;28;20291;-63
2023/04/03 01:12:54;;;;;;;9.10;2.63;;;;;;;17.64;58.45;101105.25;5016572;28;20164;-63
2023/04/03 01:15:22;;;;;;;8.90;2.90;;;;;;;17.63;59.09;101104.41;5050943;28;20164;-62
2023/04/03 01:17:48;;;;;;;7.47;2.87;;;;;;;17.63;58.42;101101.56;5053423;28;20187;-63
2023/04/03 01:20:13;;;;;;;9.67;3.17;;;;;;;17.62;59.21;101099.91;5059558;28;20428;-62
2023/04/03 01:23:13;;;;;;;7.20;2.60;;;;;;;17.64;59.04;101105.25;5070770;28;20155;-63
2023/04/03 01:25:56;;;;;;;7.80;2.57;;;;;;;17.62;58.77;101119.91;5067882;28;20194;-63
2023/04/03 01:28:21;;;;;;;7.83;2.50;;;;;;;17.60;59.13;101102.25;5052890;28;20429;-62
2023/04/03 01:31:05;;;;;;;7.00;2.50;;;;;;;17.60;58.36;101107.97;5070991;28;20554;-63
2023/04/03 01:33:31;;;;;;;10.47;2.80;;;;;;;17.62;59.25;101101.91;5062250;28;20191;-62
2023/04/03 01:35:56;;;;;;;7.30;2.50;;;;;;;17.60;59.18;101099.41;5042605;28;20489;-63
2023/04/03 01:38:21;;;;;;;8.20;2.20;;;;;;;17.58;58.75;101098.94;5068725;28;20202;-62
2023/04/03 01:40:47;;;;;;;10.77;2.97;;;;;;;17.59;58.63;101097.75;5050078;28;20187;-62
2023/04/03 01:43:12;;;;;;;9.17;2.70;;;;;;;17.59;58.80;101100.59;5051647;28;20203;-63
2023/04/03 01:45:38;;;;;;;9.00;2.17;;;;;;;17.59;59.14;101099.75;5052973;28;20179;-62
2023/04/03 01:48:03;;;;;;;6.40;2.33;;;;;;;17.56;58.74;101098.44;5015940;28;20821;-63
2023/04/03 01:50:29;;;;;;;10.07;2.63;;;;;;;17.57;59.13;101097.28;5032308;28;20172;-63
2023/04/03 01:52:54;;;;;;;9.13;2.77;;;;;;;17.57;58.49;101099.28;5052981;28;20927;-62
2023/04/03 01:55:20;;;;;;;11.67;2.50;;;;;;;17.56;59.01;101107.00;5032163;28;20641;-63
2023/04/03 01:57:45;;;;;;;12.63;2.30;;;;;;;17.57;58.91;101105.00;5015737;28;20187;-62
2023/04/03 02:00:11;;;;;;;7.83;2.20;;;;;;;17.54;59.60;101103.69;5044073;28;20194;-62
2023/04/03 02:02:37;;;;;;;12.33;2.67;;;;;;;17.54;58.88;101105.69;5070172;28;20221;-63
2023/04/03 02:05:03;;;;;;;11.23;3.43;;;;;;;17.55;59.15;101108.19;5078220;28;20413;-62
2023/04/03 02:07:28;;;;;;;8.70;2.03;;;;;;;17.54;58.94;101097.97;5087208;28;20198;-62
2023/04/03 02:09:53;;;;;;;7.43;2.10;;;;;;;17.53;58.92;101104.88;5033094;28;20188;-62
2023/04/03 02:12:19;;;;;;;10.40;2.40;;;;;;;17.51;58.65;101095.81;5049033;28;20318;-62
2023/04/03 02:14:45;;;;;;;10.03;2.73;;;;;;;17.48;58.51;101096.56;5033347;28;20188;-62
2023/04/03 02:17:10;;;;;;;9.07;3.00;;;;;;;17.50;59.07;101091.31;5031088;28;20671;-63
2023/04/03 02:19:36;;;;;;;10.03;2.60;;;;;;;17.57;58.63;101093.59;5065975;28;20175;-63
2023/04/03 02:22:02;;;;;;;7.20;2.73;;;;;;;17.53;58.55;101093.47;5051961;28;20187;-62
2023/04/03 02:24:28;;;;;;;7.10;2.60;;;;;;;17.54;58.66;101086.56;5067735;28;20899;-62
2023/04/03 02:26:54;;;;;;;7.47;2.30;;;;;;;17.52;58.96;101091.81;5051928;28;20463;-63
2023/04/03 02:29:19;;;;;;;4.73;1.73;;;;;;;17.55;58.65;101093.94;5062231;28;20198;-63
2023/04/03 02:31:45;;;;;;;5.63;2.17;;;;;;;17.56;58.54;101092.72;5050039;28;20283;-62
2023/04/03 02:34:10;;;;;;;7.23;1.83;;;;;;;17.53;58.93;101093.47;5031512;28;20195;-63
2023/04/03 02:36:36;;;;;;;5.20;2.27;;;;;;;17.57;58.43;101085.88;5039625;28;20213;-63
2023/04/03 02:39:01;;;;;;;13.23;2.63;;;;;;;17.62;58.16;101096.22;5069518;28;20171;-62
2023/04/03 02:41:33;;;;;;;5.27;2.10;;;;;;;17.58;58.96;101086.69;5060695;28;20184;-62
2023/04/03 02:43:59;;;;;;;12.17;2.60;;;;;;;17.51;58.67;101092.97;5053546;28;20195;-62
2023/04/03 02:46:24;;;;;;;6.43;2.60;;;;;;;17.49;58.37;101089.66;5067826;28;20424;-63
2023/04/03 02:48:50;;;;;;;7.20;2.30;;;;;;;17.48;58.80;101090.00;5058357;28;21044;-62
2023/04/03 02:51:37;;;;;;;5.83;2.20;;;;;;;17.48;59.02;101099.41;5069314;28;20228;-62
2023/04/03 02:54:03;;;;;;;7.40;2.00;;;;;;;17.49;59.08;101092.50;5051739;28;20687;-63
2023/04/03 02:56:28;;;;;;;6.47;2.13;;;;;;;17.49;59.15;101094.50;5051523;28;20438;-63
2023/04/03 02:58:54;;;;;;;6.70;2.37;;;;;;;17.48;59.29;101099.41;5049327;28;20160;-62
2023/04/03 03:01:19;;;;;;;5.83;2.10;;;;;;;17.50;59.25;101099.06;5049499;28;20678;-63
2023/04/03 03:03:45;;;;;;;8.53;2.87;;;;;;;17.48;59.40;101104.28;5050824;28;20318;-62
2023/04/03 03:06:12;;;;;;;6.30;2.40;;;;;;;17.50;58.79;101097.00;5086140;28;20213;-62
2023/04/03 03:08:37;;;;;;;6.63;2.40;;;;;;;17.46;59.07;101090.34;5072830;28;20174;-63
2023/04/03 03:11:03;;;;;;;5.50;2.17;;;;;;;17.46;59.19;101093.19;5045256;28;20932;-62
2023/04/03 03:13:29;;;;;;;6.57;2.27;;;;;;;17.48;58.70;101092.84;5035537;28;20227;-63
2023/04/03 03:15:54;;;;;;;6.77;2.60;;;;;;;17.47;59.13;101099.75;5037786;28;20186;-62
2023/04/03 03:18:20;;;;;;;6.10;2.30;;;;;;;17.46;58.94;101096.06;5041833;28;20653;-62
2023/04/03 03:20:46;;;;;;;13.30;2.27;;;;;;;17.47;58.97;101099.75;5073170;28;20163;-63
2023/04/03 03:23:11;;;;;;;8.03;2.20;;;;;;;17.46;59.12;101098.91;5073083;28;20248;-63
2023/04/03 03:25:40;;;;;;;4.70;1.93;;;;;;;17.44;58.55;101095.59;5064448;28;20192;-63
2023/04/03 03:28:05;;;;;;;3.20;1.60;;;;;;;17.46;59.05;101098.91;5041408;28;20186;-63
2023/04/03 03:30:31;;;;;;;7.00;2.27;;;;;;;17.45;58.91;101091.53;5069368;28;20437;-63
2023/04/03 03:32:56;;;;;;;9.73;3.73;;;;;;;17.44;59.72;101098.44;5070599;28;20634;-63
2023/04/03 03:35:22;;;;;;;8.37;2.50;;;;;;;17.46;58.56;101095.25;5071822;28;20642;-63
2023/04/03 03:37:47;;;;;;;6.00;2.03;;;;;;;17.42;58.82;101089.41;5069188;28;20505;-63
2023/04/03 03:40:13;;;;;;;8.63;2.10;;;;;;;17.39;58.76;101095.81;5071594;28;20561;-63
2023/04/03 03:42:38;;;;;;;6.70;2.10;;;;;;;17.38;58.72;101094.13;5070194;28;20582;-63
2023/04/03 03:45:04;;;;;;;6.73;2.27;;;;;;;17.42;58.71;101088.56;5052752;28;20191;-63
2023/04/03 03:47:30;;;;;;;7.17;2.13;;;;;;;17.41;58.61;101084.06;5051818;28;20183;-63
2023/04/03 03:49:55;;;;;;;5.37;1.70;;;;;;;17.44;58.68;101091.88;5070623;28;20433;-64
2023/04/03 03:52:21;;;;;;;4.53;1.43;;;;;;;17.40;58.71;101091.75;5064749;28;20232;-63
2023/04/03 03:54:46;;;;;;;6.50;2.30;;;;;;;17.41;58.77;101102.00;5033284;28;20905;-63
2023/04/03 03:57:12;;;;;;;6.83;1.70;;;;;;;17.46;58.67;101096.06;5050868;28;20642;-64
2023/04/03 03:59:37;;;;;;;5.27;1.80;;;;;;;17.45;58.93;101097.25;5033065;28;20168;-63
2023/04/03 04:02:03;;;;;;;5.10;2.13;;;;;;;17.45;58.64;101090.72;5019302;28;20192;-64
2023/04/03 04:04:28;;;;;;;5.83;2.10;;;;;;;17.42;59.00;101092.25;5058400;28;20205;-63
2023/04/03 04:06:54;;;;;;;6.03;2.00;;;;;;;17.51;57.95;101101.53;5062862;28;20207;-63
2023/04/03 04:09:20;;;;;;;8.40;1.93;;;;;;;17.49;58.46;101103.06;5071059;28;20168;-63
2023/04/03 04:11:45;;;;;;;5.93;2.20;;;;;;;17.43;58.75;101099.63;5069383;28;20179;-64
2023/04/03 04:14:12;;;;;;;4.73;1.77;;;;;;;17.41;58.88;101101.19;5016537;28;20207;-63
2023/04/03 04:16:37;;;;;;;5.63;2.20;;;;;;;17.42;59.25;101103.69;5051285;28;20182;-63
2023/04/03 04:19:03;;;;;;;4.23;2.20;;;;;;;17.42;58.66;101100.84;5033521;28;20426;-63
2023/04/03 04:21:28;;;;;;;6.83;2.67;;;;;;;17.43;58.69;101105.34;5054567;28;20187;-63
2023/04/03 04:23:54;;;;;;;7.37;2.30;;;;;;;17.43;58.53;101105.34;5033704;28;20286;-62
2023/04/03 04:26:20;;;;;;;5.80;2.13;;;;;;;17.43;58.64;101111.06;5052293;28;20187;-63
2023/04/03 04:28:45;;;;;;;7.60;2.13;;;;;;;17.44;58.66;101115.56;5048393;28;20188;-63
2023/04/03 04:31:11;;;;;;;4.97;2.30;;;;;;;17.41;58.65;101110.56;5051967;28;20894;-63
2023/04/03 04:33:36;;;;;;;9.50;2.50;;;;;;;17.41;58.77;101115.44;5060632;28;20183;-63
2023/04/03 04:36:02;;;;;;;6.20;2.13;;;;;;;17.42;58.81;101115.09;5072178;28;20495;-63
2023/04/03 04:38:27;;;;;;;6.27;2.17;;;;;;;17.41;58.68;101112.59;5051882;28;20625;-63
2023/04/03 04:40:52;;;;;;;3.97;1.70;;;;;;;17.41;58.73;101119.13;5053136;28;20194;-63
2023/04/03 04:43:18;;;;;;;4.50;1.50;;;;;;;17.41;58.40;101109.75;5057738;28;20253;-63
2023/04/03 04:45:43;;;;;;;5.93;2.70;;;;;;;17.41;59.01;101124.81;5069314;28;20198;-64
2023/04/03 04:48:09;;;;;;;4.50;1.80;;;;;;;17.39;58.31;101115.78;5071506;28;20187;-63
2023/04/03 04:50:34;;;;;;;6.13;2.23;;;;;;;17.38;59.22;101127.53;5068548;28;20205;-63
2023/04/03 04:53:00;;;;;;;5.73;1.77;;;;;;;17.36;58.54;101127.88;5070516;28;20230;-63
2023/04/03 04:55:25;;;;;;;6.60;1.90;;;;;;;17.38;58.84;101124.66;5071628;28;20814;-63
2023/04/03 04:57:51;;;;;;;5.40;1.93;;;;;;;17.39;58.28;101123.50;5053413;28;20199;-63
2023/04/03 05:00:17;;;;;;;4.47;1.93;;;;;;;17.37;58.31;101129.56;5048463;28;20183;-63
2023/04/03 05:02:42;;;;;;;7.93;2.27;;;;;;;17.34;58.90;101141.69;5051412;28;20631;-63
2023/04/03 05:05:08;;;;;;;4.67;2.10;;;;;;;17.33;59.12;101139.16;5069498;28;20248;-63
2023/04/03 05:07:35;;;;;;;5.00;1.80;;;;;;;17.32;58.81;101144.06;5051977;28;20653;-64
2023/04/03 05:10:01;;;;;;;4.33;2.03;;;;;;;17.33;58.71;101140.00;5047794;28;20190;-63
2023/04/03 05:12:26;;;;;;;6.17;1.90;;;;;;;17.39;58.36;101138.63;5033506;28;20438;-63
2023/04/03 05:14:52;;;;;;;4.27;1.80;;;;;;;17.33;58.51;101140.00;5050900;28;20176;-63
2023/04/03 05:17:17;;;;;;;5.70;1.67;;;;;;;17.34;58.46;101141.69;5051065;28;20168;-63
2023/04/03 05:19:42;;;;;;;3.80;1.90;;;;;;;17.35;58.68;101137.63;5050660;28;20654;-63
2023/04/03 05:22:08;;;;;;;4.90;1.70;;;;;;;17.36;58.91;101142.16;5057534;28;20640;-63
2023/04/03 05:24:33;;;;;;;4.93;1.90;;;;;;;17.35;58.65;101143.34;5055893;28;20198;-63
2023/04/03 05:26:59;;;;;;;7.00;2.20;;;;;;;17.34;58.38;101135.97;5065197;28;20183;-63
2023/04/03 05:29:24;;;;;;;4.50;2.23;;;;;;;17.40;58.43;101142.34;5015829;28;20577;-63
2023/04/03 05:31:50;;;;;;;3.40;1.60;;;;;;;17.40;58.44;101148.03;5049349;28;20191;-63
2023/04/03 05:34:16;;;;;;;3.93;1.87;;;;;;;17.47;58.35;101151.97;5054343;28;20180;-63
2023/04/03 05:36:41;;;;;;;5.83;1.87;;;;;;;17.42;58.40;101146.50;5035165;28;20202;-64
2023/04/03 05:39:07;;;;;;;5.93;1.70;;;;;;;17.39;59.00;101150.03;5016206;28;20183;-63
2023/04/03 05:41:32;;;;;;;4.13;1.93;;;;;;;17.36;58.62;101164.16;5043828;28;20211;-64
2023/04/03 05:43:57;;;;;;;5.33;1.80;;;;;;;17.36;59.04;101162.13;5033640;28;20227;-63
2023/04/03 05:46:23;;;;;;;4.63;2.00;;;;;;;17.35;58.79;101160.47;5037085;28;20184;-63
2023/04/03 05:48:48;;;;;;;4.23;1.80;;;;;;;17.39;58.91;101161.47;5066727;28;20186;-63
2023/04/03 05:51:16;;;;;;;4.50;1.63;;;;;;;17.37;58.35;101160.97;5066525;28;20663;-62
2023/04/03 05:53:42;;;;;;;3.33;1.60;;;;;;;17.38;59.16;101171.19;5024292;28;20215;-64
2023/04/03 05:56:07;;;;;;;5.80;1.73;;;;;;;17.38;58.53;101165.47;5060351;28;20447;-63
2023/04/03 05:58:33;;;;;;;4.63;1.70;;;;;;;17.37;58.73;101165.81;5041303;28;20183;-63
2023/04/03 06:00:58;;;;;;;4.17;1.90;;;;;;;17.38;58.47;101176.06;5055256;28;20192;-64
2023/04/03 06:03:24;;;;;;;3.67;1.60;;;;;;;17.35;58.53;101171.88;5050217;28;20199;-63
2023/04/03 06:05:50;;;;;;;2.83;1.30;;;;;;;17.34;58.69;101170.22;5052188;28;20687;-63
2023/04/03 06:08:15;;;;;;;3.90;1.40;;;;;;;17.36;58.52;101167.84;5015853;28;20407;-64
2023/04/03 06:10:41;;;;;;;4.83;2.00;;;;;;;17.36;59.26;101179.25;5057639;28;20225;-63
2023/04/03 06:13:07;;;;;;;4.30;1.70;;;;;;;17.35;59.27;101180.44;5040945;28;20183;-62
2023/04/03 06:15:32;;;;;;;5.00;1.43;;;;;;;17.36;58.53;101184.97;5040399;28;20174;-64
2023/04/03 06:17:58;;;;;;;6.77;1.70;;;;;;;17.36;58.66;101189.84;5060237;28;20288;-63
2023/04/03 06:20:23;;;;;;;5.30;2.00;;;;;;;17.36;58.78;101193.53;5036901;28;20183;-63
2023/04/03 06:22:49;;;;;;;4.20;1.47;;;;;;;17.38;59.16;101194.03;5062096;28;20189;-63
2023/04/03 06:25:14;;;;;;;4.87;1.70;;;;;;;17.32;58.59;101189.72;5051744;28;20171;-63
2023/04/03 06:27:40;;;;;;;8.23;2.50;;;;;;;17.29;58.74;101189.56;5065973;28;20213;-63
2023/04/03 06:30:06;;;;;;;6.30;2.13;;;;;;;16.99;54.55;101197.41;5068556;28;20171;-62
2023/04/03 06:32:32;;;;;;;9.50;2.50;;;;;;;16.54;52.04;101207.84;5049999;28;20630;-61
2023/04/03 06:34:58;;;;;;;9.33;3.30;;;;;;;17.16;53.98;101202.13;5067327;28;20504;-62
2023/04/03 06:37:25;;;;;;;6.70;2.80;;;;;;;17.81;53.34;101202.13;5065204;28;20258;-61
2023/04/03 06:39:51;;;;;;;5.60;3.10;;;;;;;17.99;52.16;101189.28;5066975;28;20772;-61
2023/04/03 06:42:17;;;;;;;6.10;2.93;;;;;;;18.13;52.12;101201.22;5051843;28;20442;-60
2023/04/03 06:44:42;;;;;;;10.47;3.00;;;;;;;18.04;52.16;101195.63;5058999;28;20568;-61
2023/04/03 06:47:11;;;;;;;6.87;2.60;;;;;;;18.50;51.59;101198.03;5044032;28;20263;-60
2023/04/03 06:49:36;;;;;;;4.87;2.70;;;;;;;18.69;51.11;101189.66;5060014;28;20186;-62
2023/04/03 06:52:02;;;;;;;6.50;2.27;;;;;;;18.67;51.15;101194.88;5066201;28;20434;-61
2023/04/03 06:54:28;;;;;;;8.10;2.47;;;;;;;18.62;51.23;101195.13;5060346;28;20188;-60
2023/04/03 06:56:53;;;;;;;6.07;2.20;;;;;;;18.64;51.84;101206.22;5048803;28;20171;-61
2023/04/03 06:59:19;;;;;;;11.40;2.90;;;;;;;18.63;51.56;101213.97;5048049;28;20179;-61
2023/04/03 07:01:45;;;;;;;3.77;2.00;;;;;;;18.63;51.74;101213.13;5065611;28;20222;-60
2023/04/03 07:04:10;;;;;;;6.57;2.37;;;;;;;18.58;51.58;101202.78;5068876;28;20852;-60
2023/04/03 07:06:36;;;;;;;5.73;2.90;;;;;;;18.61;51.89;101204.91;5073526;28;20214;-60
2023/04/03 07:09:02;;;;;;;7.13;2.53;;;;;;;18.52;51.85;101207.06;5057355;28;20967;-60
2023/04/03 07:11:28;;;;;;;9.30;2.50;;;;;;;18.53;51.75;101214.47;5064790;28;20194;-59
2023/04/03 07:13:53;;;;;;;8.07;2.27;;;;;;;18.49;51.75;101209.81;5065705;28;20437;-61
2023/04/03 07:16:19;;;;;;;8.93;2.43;;;;;;;18.20;53.11;101216.56;5049514;28;20171;-60
2023/04/03 07:18:45;;;;;;;8.07;2.20;;;;;;;18.05;53.43;101214.41;5058648;28;20297;-60
2023/04/03 07:21:11;;;;;;;7.17;2.13;;;;;;;18.13;53.02;101216.34;5064539;28;20197;-61
2023/04/03 07:23:36;;;;;;;7.60;2.37;;;;;;;18.05;53.29;101219.28;5068900;28;20658;-60
2023/04/03 07:26:02;;;;;;;9.20;3.40;;;;;;;18.06;53.46;101218.13;5063630;28;20199;-61
2023/04/03 07:28:27;;;;;;;8.20;2.80;;;;;;;18.05;54.34;101220.13;5062552;28;20194;-61
2023/04/03 07:30:59;;;;;;;7.70;2.30;;;;;;;18.02;54.64;101217.97;5057281;28;20746;-61
2023/04/03 07:33:25;;;;;;;9.43;3.17;;;;;;;17.99;53.74;101221.56;5045772;28;20823;-61
2023/04/03 07:35:50;;;;;;;9.67;3.03;;;;;;;17.92;54.04;101218.47;5049072;28;20426;-61
2023/04/03 07:38:16;;;;;;;11.70;3.00;;;;;;;17.89;53.35;101227.75;5063127;28;20183;-62
2023/04/03 07:40:49;;;;;;;7.90;3.03;;;;;;;17.82;52.75;101220.94;5063993;28;20168;-61
2023/04/03 07:43:15;;;;;;;20.00;3.90;;;;;;;17.85;52.80;101231.66;5048157;28;20452;-61
2023/04/03 07:45:41;;;;;;;7.17;3.03;;;;;;;17.90;53.04;101232.25;5044373;28;20783;-61
2023/04/03 07:48:07;;;;;;;5.87;2.70;;;;;;;17.87;52.72;101230.13;5063507;28;20428;-61
2023/04/03 07:50:32;;;;;;;19.33;3.10;;;;;;;17.83;52.51;101226.31;5064900;28;20297;-62
2023/04/03 07:52:58;;;;;;;10.60;2.60;;;;;;;17.87;51.74;101223.56;5056421;28;20227;-60
2023/04/03 07:55:24;;;;;;;16.63;3.20;;;;;;;17.87;52.14;101237.84;5047339;28;20286;-61
2023/04/03 07:57:50;;;;;;;12.87;3.43;;;;;;;17.75;52.42;101230.09;5057317;28;20183;-61
2023/04/03 08:00:17;;;;;;;7.70;2.50;;;;;;;17.57;51.37;101222.06;5054808;28;20484;-62
2023/04/03 08:02:44;;;;;;;12.30;2.80;;;;;;;17.55;49.87;101228.13;5062418;28;20715;-62
2023/04/03 08:05:10;;;;;;;6.20;2.67;;;;;;;17.56;49.13;101232.63;5081520;28;20792;-61
2023/04/03 08:07:37;;;;;;;6.30;3.00;;;;;;;17.60;47.62;101227.91;5046500;28;20466;-62
2023/04/03 08:10:03;;;;;;;11.83;3.03;;;;;;;17.63;48.38;101230.06;5071572;28;20555;-62
2023/04/03 08:12:29;;;;;;;8.57;3.20;;;;;;;17.70;48.51;101230.31;5057259;28;20524;-61
2023/04/03 08:14:55;;;;;;;9.53;3.20;;;;;;;17.72;49.08;101227.94;5059704;28;20426;-61
2023/04/03 08:17:21;;;;;;;14.90;3.27;;;;;;;17.74;49.34;101228.41;5065786;28;20971;-62
2023/04/03 08:19:46;;;;;;;16.83;3.43;;;;;;;17.82;48.69;101230.34;5061313;28;20191;-61
2023/04/03 08:22:12;;;;;;;11.23;3.20;;;;;;;17.79;46.43;101233.91;5058822;28;20596;-61
2023/04/03 08:24:37;;;;;;;8.37;2.73;;;;;;;17.73;45.13;101234.47;5059950;28;20207;-62
2023/04/03 08:27:03;;;;;;;16.87;2.50;;;;;;;17.80;43.34;101223.31;5058305;28;20186;-62
2023/04/03 08:29:28;;;;;;;12.70;2.80;;;;;;;17.97;43.52;101221.06;5033964;28;20183;-62
2023/04/03 08:31:54;;;;;;;11.93;2.67;;;;;;;18.09;44.64;101223.97;5051300;28;20555;-62
2023/04/03 08:34:20;;;;;;;8.20;2.60;;;;;;;18.24;44.31;101228.97;5053943;28;20331;-62
2023/04/03 08:36:45;;;;;;;10.17;2.37;;;;;;;18.33;44.57;101218.28;5033894;28;20172;-62
2023/04/03 08:39:11;;;;;;;6.20;3.03;;;;;;;18.36;44.54;101223.28;5051464;28;20168;-62
2023/04/03 08:41:43;;;;;;;5.77;2.30;;;;;;;18.34;45.22;101221.97;5055083;28;21009;-62
2023/04/03 08:44:34;;;;;;;10.60;2.80;;;;;;;18.29;45.49;101231.59;5068952;28;20194;-62
2023/04/03 08:47:25;;;;;;;6.87;2.57;;;;;;;18.27;46.02;101225.38;5056258;28;20769;-62
2023/04/03 08:49:56;;;;;;;9.57;2.77;;;;;;;18.18;46.36;101218.13;5043526;28;20445;-61
2023/04/03 08:52:27;;;;;;;9.33;2.30;;;;;;;18.09;47.02;101228.81;5038373;28;20406;-62
2023/04/03 08:54:55;;;;;;;7.50;2.00;;;;;;;18.04;47.29;101229.91;5053227;28;20463;-62
2023/04/03 08:57:32;;;;;;;6.90;2.70;;;;;;;17.97;47.66;101229.63;5053403;28;20422;-62
2023/04/03 09:00:04;;;;;;;5.33;2.00;;;;;;;17.91;48.05;101236.78;5037478;28;20434;-61
2023/04/03 09:02:59;;;;;;;6.30;2.20;;;;;;;17.88;48.47;101234.66;5066443;28;20982;-61
2023/04/03 09:05:45;;;;;;;5.20;2.13;;;;;;;17.84;48.96;101239.38;5058701;28;20444;-61
2023/04/03 09:08:31;;;;;;;12.40;2.50;;;;;;;17.84;49.25;101238.53;5073323;28;20405;-62
2023/04/03 09:11:08;;;;;;;6.20;2.13;;;;;;;17.83;49.47;101236.88;5045215;28;20521;-61
2023/04/03 09:13:57;;;;;;;6.40;2.30;;;;;;;17.81;49.66;101234.38;5051147;28;20762;-62
2023/04/03 09:16:44;;;;;;;5.93;2.23;;;;;;;17.78;49.95;101242.81;5057554;28;20472;-62
2023/04/03 09:19:38;;;;;;;5.30;2.20;;;;;;;17.71;50.41;101243.38;5050202;28;20444;-61
2023/04/03 09:22:41;;;;;;;9.00;2.20;;;;;;;17.72;50.67;101238.53;5052624;28;20402;-61
2023/04/03 09:25:27;;;;;;;5.53;2.00;;;;;;;17.69;50.93;101242.06;4968549;28;20512;-61
2023/04/03 09:27:53;;;;;;;7.40;2.60;;;;;;;17.77;50.99;101239.16;5042402;28;20442;-62
2023/04/03 09:30:23;;;;;;;4.23;2.00;;;;;;;17.75;51.28;101237.84;5057708;28;20444;-61
2023/04/03 09:32:50;;;;;;;8.53;2.07;;;;;;;17.73;51.57;101237.34;5066114;28;20238;-62
2023/04/03 09:35:36;;;;;;;8.50;2.03;;;;;;;17.74;51.29;101237.00;5070659;28;20504;-62
2023/04/03 09:38:01;;;;;;;10.90;1.83;;;;;;;17.71;51.79;101251.97;5070688;28;20424;-62
2023/04/03 09:40:34;;;;;;;5.23;2.20;;;;;;;17.70;51.86;101238.88;5066400;28;20812;-62
2023/04/03 09:43:02;;;;;;;5.07;2.13;;;;;;;17.67;51.99;101245.31;5034574;28;20611;-61
2023/04/03 09:45:30;;;;;;;4.30;1.80;;;;;;;17.70;52.05;101241.72;5068661;28;20474;-62
2023/04/03 09:48:15;;;;;;;10.77;2.30;;;;;;;17.70;52.14;101240.91;5068064;28;20928;-61
2023/04/03 09:51:01;;;;;;;10.30;2.20;;;;;;;17.67;52.56;101242.44;5053144;28;20402;-61
2023/04/03 09:53:42;;;;;;;6.57;2.40;;;;;;;17.66;52.96;101243.63;5052913;28;20478;-61
2023/04/03 09:56:13;;;;;;;5.30;1.80;;;;;;;17.64;52.90;101240.28;5049333;28;20422;-62
2023/04/03 09:58:42;;;;;;;4.47;1.83;;;;;;;17.64;52.68;101245.16;5058413;28;20437;-62
2023/04/03 10:01:27;;;;;;;6.10;2.00;;;;;;;17.65;52.83;101244.81;5069016;28;20933;-62
2023/04/03 10:04:22;;;;;;;5.93;2.20;;;;;;;17.65;53.44;101244.00;5069000;28;20456;-62
2023/04/03 10:06:50;;;;;;;6.67;2.23;;;;;;;17.63;53.32;101238.63;5032939;28;20469;-62
2023/04/03 10:09:20;;;;;;;5.10;1.97;;;;;;;17.63;53.32;101238.63;5032038;28;20422;-62
2023/04/03 10:12:09;;;;;;;7.17;2.03;;;;;;;17.62;53.50;101253.25;5049445;28;20430;-62
2023/04/03 10:14:55;;;;;;;3.77;1.60;;;;;;;17.59;53.48;101233.94;5032234;28;20479;-62
2023/04/03 10:17:21;;;;;;;5.20;2.30;;;;;;;17.59;53.40;101239.66;5037033;28;20937;-61
2023/04/03 10:20:22;;;;;;;5.27;1.93;;;;;;;17.59;53.54;101234.81;5068138;28;20437;-62
2023/04/03 10:22:54;;;;;;;5.03;1.97;;;;;;;17.60;53.99;101242.16;5040828;28;20690;-61
2023/04/03 10:25:43;;;;;;;6.20;2.40;;;;;;;17.59;54.31;101234.81;5056675;28;20927;-62
2023/04/03 10:28:18;;;;;;;5.50;2.27;;;;;;;17.57;54.25;101237.19;5063542;28;20446;-62
2023/04/03 10:30:48;;;;;;;3.90;1.80;;;;;;;17.56;54.16;101232.63;5049672;28;20417;-62
2023/04/03 10:33:29;;;;;;;7.40;1.93;;;;;;;17.55;54.35;101230.97;5034297;28;20432;-61
2023/04/03 10:36:09;;;;;;;9.80;2.70;;;;;;;17.58;54.35;101233.13;5047203;28;20421;-62
2023/04/03 10:38:56;;;;;;;6.57;2.40;;;;;;;17.56;53.53;101228.97;5054016;28;20750;-62
2023/04/03 10:41:34;;;;;;;10.53;2.90;;;;;;;17.49;53.05;101229.53;5064354;28;20425;-62
2023/04/03 10:44:21;;;;;;;8.37;2.63;;;;;;;17.51;53.06;101221.44;5051542;28;20873;-62
2023/04/03 10:46:56;;;;;;;9.80;3.37;;;;;;;17.59;52.84;101220.53;5060625;28;20424;-61
2023/04/03 10:49:55;;;;;;;8.23;2.87;;;;;;;17.53;52.90;101224.78;5027244;28;20449;-62
2023/04/03 10:52:27;;;;;;;9.30;3.20;;;;;;;17.49;53.10;101223.81;5061520;28;20441;-62
2023/04/03 10:55:11;;;;;;;7.67;2.50;;;;;;;17.50;53.24;101228.34;5051001;28;20555;-62
2023/04/03 10:57:37;;;;;;;9.87;3.23;;;;;;;17.55;53.33;101225.25;5069123;28;20411;-62
2023/04/03 11:00:04;;;;;;;12.37;3.20;;;;;;;17.54;53.81;101228.47;5067453;28;21446;-61
2023/04/03 11:02:57;;;;;;;12.33;2.47;;;;;;;17.58;53.51;101227.44;5068369;28;20605;-61
2023/04/03 11:05:41;;;;;;;6.47;2.13;;;;;;;17.58;53.79;101220.88;5076341;28;21000;-62
2023/04/03 11:08:28;;;;;;;11.87;2.60;;;;;;;17.58;54.10;101216.00;5072221;28;20393;-62
2023/04/03 11:10:57;;;;;;;7.90;2.90;;;;;;;17.65;53.56;101216.25;5071149;28;20429;-61
2023/04/03 11:13:26;;;;;;;9.00;2.67;;;;;;;17.68;53.65;101215.56;5033996;28;20471;-61
2023/04/03 11:15:53;;;;;;;10.30;3.70;;;;;;;17.74;53.27;101216.16;5036815;28;20413;-60
2023/04/03 11:18:52;;;;;;;10.00;2.80;;;;;;;17.71;53.80;101214.84;5050976;28;20425;-61
2023/04/03 11:21:24;;;;;;;8.33;2.60;;;;;;;17.73;53.54;101212.47;4990991;28;20453;-60
2023/04/03 11:23:49;;;;;;;5.60;2.47;;;;;;;17.62;53.90;101211.25;5069236;28;20486;-61
2023/04/03 11:26:21;;;;;;;12.57;2.40;;;;;;;17.63;54.00;101209.22;5043844;28;20434;-60
2023/04/03 11:28:46;;;;;;;6.63;2.43;;;;;;;17.62;54.15;101204.72;5031311;28;20518;-61
2023/04/03 11:31:41;;;;;;;10.27;2.60;;;;;;;17.59;54.06;101211.97;5035216;28;20448;-61
2023/04/03 11:34:38;;;;;;;7.13;2.10;;;;;;;17.57;54.58;101205.78;5038757;28;20163;-60